EST,Max TemperatureF,Mean TemperatureF,Min TemperatureF,Max Dew PointF,MeanDew PointF,Min DewpointF,Max Humidity, Mean Humidity, Min Humidity, Max Sea Level PressureIn, Mean Sea Level PressureIn, Min Sea Level PressureIn, Max VisibilityMiles, Mean VisibilityMiles, Min VisibilityMiles, Max Wind SpeedMPH, Mean Wind SpeedMPH, Max Gust SpeedMPH,PrecipitationIn, CloudCover, Events, WindDirDegrees
2013-2-1,64,46,28,36,31,27,100,78,28,30.34,30.30,30.26,10,10,5,14,1,23,0.00,0,,298
2013-2-2,64,47,30,36,27,18,100,66,28,30.37,30.29,30.18,10,9,3,8,3,,0.00,0,,359
2013-2-3,66,47,28,41,31,27,100,76,23,30.21,30.14,30.06,10,8,2,12,2,,0.00,0,,265
2013-2-4,64,48,32,41,36,32,100,78,30,30.14,30.10,30.07,10,9,3,6,0,,0.00,0,,135
2013-2-5,71,53,35,54,44,34,100,83,43,30.12,30.06,30.01,10,8,3,9,0,,0.00,1,Rain,206
2013-2-6,68,60,53,59,55,52,100,91,68,30.16,30.11,30.06,10,9,2,6,1,,0.00,6,Rain,109
2013-2-7,75,65,55,66,61,55,100,94,61,30.11,29.98,29.83,10,9,2,17,3,23,0.00,4,Rain,187
2013-2-8,69,58,46,64,55,46,100,89,60,30.11,29.98,29.86,10,9,0,13,9,20,0.00,4,Fog,282
2013-2-9,64,52,39,48,44,37,100,89,48,30.28,30.20,30.11,10,8,0,15,2,,0.00,0,Fog,20
2013-2-10,73,55,37,57,47,37,100,84,50,30.31,30.24,30.18,10,8,3,18,2,,0.00,1,,130
2013-2-11,80,70,59,63,60,57,100,81,54,30.21,30.15,30.08,10,10,5,20,3,,0.00,1,,182
2013-2-12,82,68,53,66,63,54,100,89,54,30.09,30.01,29.88,10,5,0,15,3,20,0.00,4,Fog,195
2013-2-13,73,65,57,72,63,48,100,84,52,29.95,29.87,29.82,10,8,2,17,9,25,0.06,5,Rain-Thunderstorm,220
2013-2-14,57,50,44,55,49,43,100,91,82,30.09,30.02,29.94,10,10,4,8,4,,0.03,4,Rain,316
2013-2-15,64,50,35,45,39,36,100,89,37,30.13,30.05,29.99,10,7,1,8,1,,0.00,0,,351
2013-2-16,59,48,37,43,36,18,100,80,42,30.16,30.02,29.94,10,7,1,18,4,29,0.00,1,Rain,304
2013-2-17,51,38,24,23,19,7,93,63,18,30.38,30.28,30.17,10,10,10,15,5,17,0.00,0,,288
2013-2-18,60,40,19,39,27,18,100,81,33,30.43,30.34,30.25,10,10,10,10,1,,0.00,0,,113
2013-2-19,77,55,33,63,46,34,100,87,44,30.26,30.14,30.02,10,10,5,17,3,29,0.00,3,Rain,256
2013-2-20,68,54,41,57,41,25,100,73,26,30.20,30.14,30.08,10,9,0,10,4,,0.00,1,Fog,340
2013-2-21,71,52,33,54,42,34,100,82,35,30.17,30.10,30.00,10,10,5,8,1,,0.00,1,,70
2013-2-22,82,68,53,68,61,54,100,92,48,30.09,30.05,30.00,10,7,0,14,2,,0.00,5,Fog-Rain,146
2013-2-23,80,70,59,68,63,59,100,92,58,30.00,29.95,29.86,10,5,0,17,3,44,0.63,6,Fog-Rain,233
2013-2-24,73,63,53,63,57,41,100,88,40,30.02,29.94,29.87,10,7,1,15,2,,0.10,6,Rain-Thunderstorm,15
2013-2-25,66,60,55,66,60,50,100,99,77,29.95,29.90,29.81,10,6,2,15,4,24,0.06,6,Rain-Thunderstorm,53
2013-2-26,77,68,59,68,62,54,100,88,44,29.85,29.76,29.68,10,7,2,21,5,32,0.00,3,Rain-Thunderstorm,201
2013-2-27,69,60,51,54,47,41,88,71,38,29.99,29.91,29.85,10,10,10,14,8,21,0.00,0,,266
2013-2-28,69,54,39,45,40,32,100,66,35,29.99,29.94,29.87,10,10,8,17,3,,0.00,0,,267